Monte Alegre, Brazil
Current Conditions -  °F | °C
As of 12:00 PM on Thursday 23 Oct 2014 (Local Time) from SBSN Reporting Station
Rain Showers Rain Showers  
Wind Chill: 82°   Ceiling: 10000
Heat Index: 91°   Visibility: 6mi
Dew Point: 77°   Wind: 6mph
Humidity: 84%   Direction: 50°NE
Pressure: 29.91"   Gusts: NA
Location:  2.01°S, 54.07°W
Report Text: SBSN 231500Z 05005KT 9999 VCSH SCT013 BKN100 28/25 Q1013
Loading
Personal Weather Stations






























Interactive Weather Map
Tropical Storm Tracking
New forecast layout! Learn more

10-Day Weather Forecast

Advertisements
Track Severe Weather on mobile